Aviation Digital Data Service (ADDS)

Output produced by TAFs form (2142 UTC 22 July 2014)
found at http://aviationweather.gov/adds/tafs/
 
KTUS 221740Z 2218/2318 32008KT P6SM SCT130 BKN200 
     FM230500 16005KT P6SM SCT150 BKN200